Time;durP1;ratioP1;P1;durP2;ratioP2;P2;SDS_P1;SDS_P2;PMS_P1;PMS_P2;Temp;Humidity;BMP_temperature;BMP_pressure;BME280_temperature;BME280_humidity;BME280_pressure;Samples;Min_cycle;Max_cycle;Signal;HPM_P1;HPM_P2
2022/01/02 00:01:37;;;;;;;10.40;7.03;;;10.80;1.00;;;;;;5084678;28;20416;-83
2022/01/02 00:04:04;;;;;;;7.40;5.43;;;10.80;1.00;;;;;;5060363;28;20444;-84
2022/01/02 00:06:33;;;;;;;9.63;6.00;;;10.70;1.00;;;;;;5071935;28;20471;-83
2022/01/02 00:09:05;;;;;;;10.50;5.90;;;10.70;1.00;;;;;;5078402;28;20455;-85
2022/01/02 00:11:33;;;;;;;6.03;5.23;;;10.70;1.00;;;;;;5079436;28;20489;-82
2022/01/02 00:14:06;;;;;;;7.57;5.50;;;10.60;1.00;;;;;;5066262;28;20452;-84
2022/01/02 00:16:34;;;;;;;8.63;5.73;;;10.50;1.00;;;;;;5071766;28;20845;-85
2022/01/02 00:19:08;;;;;;;8.20;6.13;;;10.60;1.00;;;;;;5071074;28;20447;-79
2022/01/02 00:21:41;;;;;;;8.53;5.77;;;10.50;1.00;;;;;;5058134;28;20466;-80
2022/01/02 00:24:14;;;;;;;13.63;6.17;;;10.50;1.00;;;;;;5060431;28;20464;-81
2022/01/02 00:26:43;;;;;;;9.50;8.07;;;10.40;1.00;;;;;;5060265;28;20645;-82
2022/01/02 00:29:10;;;;;;;9.10;6.30;;;10.40;1.00;;;;;;5064418;28;20446;-80
2022/01/02 00:31:39;;;;;;;8.70;5.40;;;10.40;1.00;;;;;;5037173;28;20487;-83
2022/01/02 00:34:07;;;;;;;8.80;7.50;;;10.30;1.00;;;;;;5058794;28;21031;-80
2022/01/02 00:36:34;;;;;;;7.30;6.23;;;10.30;1.00;;;;;;5059788;28;20963;-82
2022/01/02 00:39:00;;;;;;;7.93;7.07;;;10.20;1.00;;;;;;5053316;28;20460;-81
2022/01/02 00:41:35;;;;;;;10.07;6.17;;;10.20;1.00;;;;;;5056854;28;20452;-81
2022/01/02 00:44:09;;;;;;;11.03;6.90;;;10.10;1.00;;;;;;5058431;28;21166;-82
2022/01/02 00:46:46;;;;;;;9.90;7.03;;;10.10;1.00;;;;;;5054299;28;20466;-81
2022/01/02 00:49:17;;;;;;;9.07;6.20;;;10.10;1.00;;;;;;5055004;28;20475;-81
2022/01/02 00:51:51;;;;;;;9.10;6.50;;;10.00;1.00;;;;;;5057545;28;20427;-81
2022/01/02 00:54:18;;;;;;;10.00;6.90;;;9.90;1.00;;;;;;5056952;28;20499;-82
2022/01/02 00:56:51;;;;;;;9.40;6.93;;;9.90;1.00;;;;;;5050826;28;20509;-81
2022/01/02 00:59:27;;;;;;;8.70;6.17;;;9.90;1.00;;;;;;5055785;28;21029;-80
2022/01/02 01:02:02;;;;;;;11.23;7.40;;;9.90;1.00;;;;;;5056697;28;20443;-80
2022/01/02 01:04:31;;;;;;;9.43;7.67;;;9.90;1.00;;;;;;5054465;28;20451;-81
2022/01/02 01:07:03;;;;;;;9.70;7.50;;;9.80;1.00;;;;;;5050843;28;20460;-81
2022/01/02 01:09:30;;;;;;;9.87;7.40;;;9.80;1.00;;;;;;5038850;28;20563;-79
2022/01/02 01:12:00;;;;;;;7.23;6.30;;;9.80;1.00;;;;;;5056709;28;20444;-80
2022/01/02 01:14:28;;;;;;;7.87;6.37;;;9.80;1.00;;;;;;5059236;28;21170;-81
2022/01/02 01:16:55;;;;;;;10.03;7.20;;;9.80;1.00;;;;;;5066228;28;20459;-78
2022/01/02 01:19:23;;;;;;;10.40;7.70;;;9.80;1.00;;;;;;5068449;28;20439;-79
2022/01/02 01:21:50;;;;;;;9.73;7.40;;;9.80;1.00;;;;;;5077396;28;21735;-80
2022/01/02 01:24:17;;;;;;;9.70;7.77;;;9.80;1.00;;;;;;5072089;28;20439;-83
2022/01/02 01:26:46;;;;;;;7.47;6.60;;;9.80;1.00;;;;;;5075861;28;20419;-86
2022/01/02 01:29:18;;;;;;;11.67;7.97;;;9.80;1.00;;;;;;5077374;28;20446;-84
2022/01/02 01:31:46;;;;;;;11.43;6.87;;;9.80;1.00;;;;;;5076348;28;20425;-86
2022/01/02 01:34:13;;;;;;;7.80;6.83;;;9.70;1.00;;;;;;5071267;28;20469;-83
2022/01/02 01:36:40;;;;;;;9.20;6.77;;;9.70;1.00;;;;;;5073222;28;20517;-83
2022/01/02 01:39:07;;;;;;;10.43;6.90;;;9.70;1.00;;;;;;5077272;28;20549;-86
2022/01/02 01:41:38;;;;;;;9.53;8.30;;;9.70;1.00;;;;;;5068615;28;20456;-83
2022/01/02 01:44:21;;;;;;;13.43;7.97;;;9.70;1.00;;;;;;5073431;28;20455;-84
2022/01/02 01:46:51;;;;;;;11.60;8.60;;;9.70;1.00;;;;;;5074483;28;20429;-84
2022/01/02 01:49:20;;;;;;;10.20;7.10;;;9.70;1.00;;;;;;5076417;28;20560;-84
2022/01/02 01:51:47;;;;;;;8.17;6.27;;;9.70;1.00;;;;;;5071956;28;20331;-84
2022/01/02 01:54:14;;;;;;;10.00;6.90;;;9.60;1.00;;;;;;5064668;28;20460;-80
2022/01/02 01:56:41;;;;;;;9.97;6.70;;;9.60;1.00;;;;;;5053121;28;20522;-79
2022/01/02 01:59:08;;;;;;;10.93;7.70;;;9.50;1.00;;;;;;5060215;28;20522;-82
2022/01/02 02:01:35;;;;;;;8.50;7.47;;;9.50;1.00;;;;;;5054016;28;20426;-80
2022/01/02 02:04:03;;;;;;;11.50;8.70;;;9.50;1.00;;;;;;5054931;28;20463;-84
2022/01/02 02:06:31;;;;;;;10.07;7.30;;;9.40;1.00;;;;;;5069139;28;20455;-83
2022/01/02 02:08:59;;;;;;;10.50;7.65;;;9.40;1.00;;;;;;5053027;28;20435;-82
2022/01/02 02:11:28;;;;;;;15.07;9.60;;;9.40;1.00;;;;;;5053586;28;21176;-82
2022/01/02 02:13:56;;;;;;;13.50;8.20;;;9.40;1.00;;;;;;5050001;28;20452;-81
2022/01/02 02:16:23;;;;;;;9.70;8.70;;;9.40;1.00;;;;;;5048090;28;20456;-82
2022/01/02 02:18:49;;;;;;;8.40;6.70;;;9.40;1.00;;;;;;5041547;28;20543;-82
2022/01/02 02:21:27;;;;;;;8.87;7.87;;;9.40;1.00;;;;;;5057925;28;20443;-81
2022/01/02 02:23:54;;;;;;;11.17;8.57;;;9.30;1.00;;;;;;5070568;28;20439;-81
2022/01/02 02:26:20;;;;;;;11.50;7.60;;;9.30;1.00;;;;;;5075492;28;20464;-84
2022/01/02 02:28:47;;;;;;;11.93;8.40;;;9.20;1.00;;;;;;5074950;28;20424;-81
2022/01/02 02:31:14;;;;;;;10.10;7.80;;;9.20;1.00;;;;;;5063800;28;20265;-80
2022/01/02 02:33:40;;;;;;;10.02;7.90;;;9.10;1.00;;;;;;5051998;28;20545;-81
2022/01/02 02:36:08;;;;;;;8.80;7.00;;;9.10;1.00;;;;;;5057434;28;20217;-80
2022/01/02 02:38:38;;;;;;;8.35;7.55;;;9.10;1.00;;;;;;5060389;28;20443;-81
2022/01/02 02:41:05;;;;;;;11.00;7.70;;;9.10;1.00;;;;;;5053015;28;20233;-80
2022/01/02 02:43:37;;;;;;;10.98;8.60;;;9.00;1.00;;;;;;5062409;28;21319;-80
2022/01/02 02:49:01;;;;;;;11.50;9.27;;;9.00;1.00;;;;;;5089659;27;20469;-80
2022/01/02 02:51:34;;;;;;;12.30;9.30;;;9.00;1.00;;;;;;5077604;28;20252;-80
2022/01/02 02:54:03;;;;;;;10.48;7.80;;;8.90;1.00;;;;;;5077959;28;20462;-81
2022/01/02 02:56:41;;;;;;;9.52;7.55;;;8.90;1.00;;;;;;5060329;28;20225;-82
2022/01/02 02:59:08;;;;;;;13.70;8.88;;;8.90;1.00;;;;;;5060093;28;21135;-80
2022/01/02 03:01:34;;;;;;;10.03;7.57;;;8.90;1.00;;;;;;5050502;28;20952;-80
2022/01/02 03:04:01;;;;;;;10.27;7.60;;;9.00;1.00;;;;;;5057565;28;21364;-81
2022/01/02 03:06:28;;;;;;;11.67;8.23;;;9.00;1.00;;;;;;5057139;28;21269;-82
2022/01/02 03:08:54;;;;;;;7.30;6.45;;;9.00;1.00;;;;;;5048520;28;20854;-80
2022/01/02 03:11:24;;;;;;;8.67;6.50;;;9.00;1.00;;;;;;5058531;28;20237;-80
2022/01/02 03:13:52;;;;;;;10.10;8.20;;;9.10;1.00;;;;;;5041543;28;20478;-80
2022/01/02 03:16:19;;;;;;;8.30;6.97;;;9.10;1.00;;;;;;5052891;28;20460;-81
2022/01/02 03:18:46;;;;;;;9.05;6.28;;;9.10;1.00;;;;;;5053722;28;20247;-80
2022/01/02 03:21:13;;;;;;;11.32;6.97;;;9.10;1.00;;;;;;5053216;28;20323;-81
2022/01/02 03:23:41;;;;;;;7.50;6.50;;;9.10;1.00;;;;;;5055979;28;20276;-80
2022/01/02 03:26:08;;;;;;;9.70;7.33;;;9.10;1.00;;;;;;5051475;28;20463;-79
2022/01/02 03:28:36;;;;;;;8.85;6.32;;;9.20;1.00;;;;;;5056710;28;20416;-80
2022/01/02 03:31:03;;;;;;;7.03;5.80;;;9.10;1.00;;;;;;5049312;28;20313;-78
2022/01/02 03:33:30;;;;;;;7.63;6.30;;;9.10;1.00;;;;;;5050375;28;20481;-80
2022/01/02 03:35:56;;;;;;;9.07;6.30;;;9.20;1.00;;;;;;5051757;28;20467;-79
2022/01/02 03:38:23;;;;;;;9.67;6.70;;;9.20;1.00;;;;;;5049677;28;21276;-80
2022/01/02 03:40:50;;;;;;;8.70;5.80;;;9.20;1.00;;;;;;5052690;28;20420;-80
2022/01/02 03:43:16;;;;;;;8.40;6.30;;;9.20;1.00;;;;;;5057460;28;20503;-80
2022/01/02 03:45:45;;;;;;;6.53;5.83;;;9.20;1.00;;;;;;5054037;28;20486;-80
2022/01/02 03:48:12;;;;;;;7.30;5.57;;;9.20;1.00;;;;;;5049133;28;20845;-81
2022/01/02 03:50:38;;;;;;;7.57;6.73;;;9.20;1.00;;;;;;5058346;28;20461;-80
2022/01/02 03:53:06;;;;;;;9.03;6.50;;;9.20;1.00;;;;;;5049395;28;20547;-80
2022/01/02 03:55:33;;;;;;;9.70;6.23;;;9.30;1.00;;;;;;5055188;28;20554;-81
2022/01/02 03:58:00;;;;;;;7.17;6.00;;;9.30;1.00;;;;;;5056523;28;20446;-81
2022/01/02 04:00:26;;;;;;;8.20;5.97;;;9.30;1.00;;;;;;5051400;28;20542;-81
2022/01/02 04:02:54;;;;;;;6.83;6.13;;;9.30;1.00;;;;;;5058168;28;20462;-81
2022/01/02 04:05:21;;;;;;;7.37;6.30;;;9.30;1.00;;;;;;5055419;28;20472;-80
2022/01/02 04:07:48;;;;;;;8.00;5.70;;;9.30;1.00;;;;;;5058022;28;20546;-81
2022/01/02 04:10:19;;;;;;;10.43;7.10;;;9.20;1.00;;;;;;5057299;28;20467;-81
2022/01/02 04:12:45;;;;;;;7.00;5.67;;;9.20;1.00;;;;;;5057642;28;20553;-81
2022/01/02 04:15:13;;;;;;;7.27;5.63;;;9.20;1.00;;;;;;5054548;28;20555;-80
2022/01/02 04:17:41;;;;;;;11.27;5.80;;;9.20;1.00;;;;;;5056485;28;20503;-80
2022/01/02 04:20:11;;;;;;;8.10;6.37;;;9.20;1.00;;;;;;5059106;28;20518;-82
2022/01/02 04:22:38;;;;;;;7.90;5.70;;;9.20;1.00;;;;;;5055238;28;20535;-81
2022/01/02 04:25:06;;;;;;;8.20;6.37;;;9.20;1.00;;;;;;5059100;28;20462;-81
2022/01/02 04:27:33;;;;;;;7.43;5.67;;;9.20;1.00;;;;;;5039499;28;20446;-81
2022/01/02 04:30:00;;;;;;;6.30;5.20;;;9.20;1.00;;;;;;5059972;28;20440;-81
2022/01/02 04:32:27;;;;;;;8.47;6.30;;;9.30;1.00;;;;;;5059442;28;20597;-81
2022/01/02 04:34:53;;;;;;;9.90;5.83;;;9.30;1.00;;;;;;5071135;28;20476;-81
2022/01/02 04:37:21;;;;;;;9.23;6.10;;;9.30;1.00;;;;;;5075395;28;20508;-80
2022/01/02 04:39:48;;;;;;;10.03;6.30;;;9.30;1.00;;;;;;5071250;28;20451;-79
2022/01/02 04:42:15;;;;;;;6.23;5.63;;;9.30;1.00;;;;;;5070237;28;20521;-79
2022/01/02 04:44:42;;;;;;;7.67;5.80;;;9.40;1.00;;;;;;5067081;28;20490;-80
2022/01/02 04:47:08;;;;;;;7.43;6.13;;;9.40;1.00;;;;;;5053655;28;20498;-80
2022/01/02 04:49:35;;;;;;;6.77;5.60;;;9.30;1.00;;;;;;5049481;28;22386;-80
2022/01/02 04:52:02;;;;;;;6.90;6.07;;;9.30;1.00;;;;;;5053217;28;20594;-80
2022/01/02 04:54:30;;;;;;;7.73;5.60;;;9.30;1.00;;;;;;5057753;28;20456;-81
2022/01/02 04:56:57;;;;;;;6.60;5.90;;;9.30;1.00;;;;;;5058512;28;20442;-80
2022/01/02 04:59:24;;;;;;;7.90;6.20;;;9.30;1.00;;;;;;5062783;28;20803;-81
2022/01/02 05:01:50;;;;;;;7.03;5.90;;;9.30;1.00;;;;;;5051887;28;23454;-82
2022/01/02 05:04:17;;;;;;;13.00;6.93;;;9.30;1.00;;;;;;5057040;28;20455;-80
2022/01/02 05:06:44;;;;;;;8.80;6.57;;;9.30;1.00;;;;;;5056566;28;20440;-81
2022/01/02 05:09:10;;;;;;;8.53;6.80;;;9.20;1.00;;;;;;5058115;28;21247;-80
2022/01/02 05:11:38;;;;;;;7.30;4.73;;;9.20;1.00;;;;;;5059074;28;20546;-81
2022/01/02 05:14:05;;;;;;;8.93;6.10;;;9.20;1.00;;;;;;5074275;28;20691;-80
2022/01/02 05:16:32;;;;;;;7.73;6.43;;;9.20;1.00;;;;;;5085002;28;20465;-80
2022/01/02 05:18:59;;;;;;;9.57;6.53;;;9.10;1.00;;;;;;5066856;28;20536;-79
2022/01/02 05:21:26;;;;;;;10.13;6.57;;;9.10;1.00;;;;;;5062499;28;20225;-79
2022/01/02 05:23:52;;;;;;;8.00;6.78;;;9.00;1.00;;;;;;5054061;28;21216;-79
2022/01/02 05:26:19;;;;;;;7.60;5.78;;;8.90;1.00;;;;;;5053159;28;21426;-81
2022/01/02 05:28:47;;;;;;;8.73;7.43;;;8.90;1.00;;;;;;5053499;28;20221;-80
2022/01/02 05:31:13;;;;;;;7.70;6.20;;;8.90;1.00;;;;;;5054609;28;20236;-81
2022/01/02 05:33:40;;;;;;;10.40;6.70;;;8.90;1.00;;;;;;5050669;28;20992;-80
2022/01/02 05:36:07;;;;;;;8.57;6.37;;;8.90;1.00;;;;;;5055990;28;20452;-81
2022/01/02 05:38:33;;;;;;;7.77;6.63;;;8.90;1.00;;;;;;5058825;28;21246;-81
2022/01/02 05:41:00;;;;;;;7.10;6.30;;;8.90;1.00;;;;;;5084074;27;20421;-80
2022/01/02 05:43:27;;;;;;;10.77;6.72;;;9.00;1.00;;;;;;5093234;27;20400;-79
2022/01/02 05:45:55;;;;;;;7.75;6.50;;;8.90;1.00;;;;;;5096053;28;20296;-79
2022/01/02 05:48:27;;;;;;;8.03;6.37;;;8.90;1.00;;;;;;5096207;27;20245;-79
2022/01/02 05:50:54;;;;;;;7.77;6.93;;;8.90;1.00;;;;;;5068157;28;20667;-81
2022/01/02 05:53:21;;;;;;;11.05;7.05;;;8.80;1.00;;;;;;5060276;28;20455;-81
2022/01/02 05:55:48;;;;;;;9.38;7.55;;;8.80;1.00;;;;;;5065552;28;20219;-79
2022/01/02 05:58:14;;;;;;;8.37;7.00;;;8.80;1.00;;;;;;5078817;28;21411;-80
2022/01/02 06:00:41;;;;;;;8.63;7.00;;;8.80;1.00;;;;;;5075598;28;20417;-79
2022/01/02 06:03:09;;;;;;;8.05;6.38;;;8.70;1.00;;;;;;5075514;28;20486;-79
2022/01/02 06:05:36;;;;;;;8.27;6.32;;;8.70;1.00;;;;;;5055010;28;20770;-80
2022/01/02 06:08:03;;;;;;;7.72;5.97;;;8.70;1.00;;;;;;5054046;28;22075;-81
2022/01/02 06:10:30;;;;;;;8.50;6.43;;;8.60;1.00;;;;;;5053403;28;20246;-80
2022/01/02 06:12:56;;;;;;;9.50;6.97;;;8.60;1.00;;;;;;5060304;28;20467;-81
2022/01/02 06:15:23;;;;;;;10.55;7.38;;;8.70;1.00;;;;;;5060972;28;20461;-80
2022/01/02 06:17:50;;;;;;;9.00;6.20;;;8.70;1.00;;;;;;5052218;28;20230;-81
2022/01/02 06:20:18;;;;;;;8.40;5.80;;;8.60;1.00;;;;;;5054386;28;20447;-80
2022/01/02 06:22:44;;;;;;;9.45;6.38;;;8.60;1.00;;;;;;5055922;28;21069;-80
2022/01/02 06:25:11;;;;;;;11.25;7.90;;;8.60;1.00;;;;;;5055869;28;20228;-80
2022/01/02 06:27:39;;;;;;;7.78;6.22;;;8.60;1.00;;;;;;5052804;28;20267;-80
2022/01/02 06:30:07;;;;;;;10.63;7.15;;;8.60;1.00;;;;;;5049006;28;20248;-80
2022/01/02 06:32:34;;;;;;;7.27;6.30;;;8.60;1.00;;;;;;5056256;28;20236;-81
2022/01/02 06:35:00;;;;;;;8.88;6.50;;;8.60;1.00;;;;;;5053530;28;20562;-80
2022/01/02 06:37:28;;;;;;;8.38;7.28;;;8.60;1.00;;;;;;5053372;28;20326;-81
2022/01/02 06:39:56;;;;;;;10.48;7.13;;;8.60;1.00;;;;;;5053820;28;20243;-81
2022/01/02 06:42:23;;;;;;;9.57;6.80;;;8.60;1.00;;;;;;5055089;28;20301;-81
2022/01/02 06:44:49;;;;;;;8.23;7.43;;;8.60;1.00;;;;;;5050781;28;20327;-80
2022/01/02 06:47:16;;;;;;;7.67;6.50;;;8.60;1.00;;;;;;5053984;28;20219;-81
2022/01/02 06:49:43;;;;;;;8.30;6.57;;;8.70;1.00;;;;;;5051961;28;20534;-80
2022/01/02 06:52:09;;;;;;;10.20;7.30;;;8.70;1.00;;;;;;5055485;28;20463;-82
2022/01/02 06:54:38;;;;;;;7.13;6.18;;;8.80;1.00;;;;;;5060248;28;20498;-80
2022/01/02 06:57:05;;;;;;;9.43;7.30;;;8.90;1.00;;;;;;5066344;28;20229;-81
2022/01/02 06:59:32;;;;;;;9.40;7.13;;;8.90;1.00;;;;;;5051246;28;20454;-80
2022/01/02 07:01:58;;;;;;;9.50;7.25;;;8.90;1.00;;;;;;5061280;28;20543;-80
2022/01/02 07:04:25;;;;;;;8.27;6.55;;;8.90;1.00;;;;;;5041138;28;20327;-80
2022/01/02 07:06:51;;;;;;;8.50;7.00;;;8.90;1.00;;;;;;5057805;28;20226;-80
2022/01/02 07:09:18;;;;;;;7.68;6.35;;;8.90;1.00;;;;;;5051643;28;20228;-81
2022/01/02 07:11:46;;;;;;;10.43;6.70;;;9.00;1.00;;;;;;5049704;28;20234;-80
2022/01/02 07:14:13;;;;;;;7.20;6.40;;;8.90;1.00;;;;;;5055430;28;20229;-81
2022/01/02 07:16:40;;;;;;;9.60;7.13;;;9.00;1.00;;;;;;5051192;28;20229;-80
2022/01/02 07:19:06;;;;;;;8.53;6.27;;;9.00;1.00;;;;;;5060550;28;20435;-81
2022/01/02 07:21:33;;;;;;;9.63;6.17;;;9.10;1.00;;;;;;5062140;28;20484;-80
2022/01/02 07:24:00;;;;;;;7.95;6.20;;;9.10;1.00;;;;;;5070236;28;20474;-80
2022/01/02 07:26:27;;;;;;;6.30;5.70;;;9.10;1.00;;;;;;5074228;28;20225;-80
2022/01/02 07:28:55;;;;;;;7.63;6.30;;;9.10;1.00;;;;;;5057649;28;20556;-80
2022/01/02 07:31:22;;;;;;;9.30;6.10;;;9.20;1.00;;;;;;5054032;28;20997;-81
2022/01/02 07:33:48;;;;;;;10.27;6.70;;;9.20;1.00;;;;;;5050590;28;20976;-81
2022/01/02 07:36:15;;;;;;;6.70;5.40;;;9.10;1.00;;;;;;5055483;28;21058;-81
2022/01/02 07:38:42;;;;;;;6.70;5.80;;;9.20;1.00;;;;;;5062995;28;20535;-81
2022/01/02 07:41:08;;;;;;;8.60;6.17;;;9.10;1.00;;;;;;5061128;28;20466;-80
2022/01/02 07:43:35;;;;;;;8.55;6.55;;;9.20;1.00;;;;;;5057989;28;20497;-81
2022/01/02 07:46:03;;;;;;;7.73;6.30;;;9.20;1.00;;;;;;5056827;28;20440;-80
2022/01/02 07:48:30;;;;;;;8.27;6.90;;;9.20;1.00;;;;;;5055125;28;21050;-81
2022/01/02 07:50:57;;;;;;;7.97;6.13;;;9.30;1.00;;;;;;5058042;28;20471;-80
2022/01/02 07:53:24;;;;;;;7.70;5.78;;;9.30;1.00;;;;;;5060822;28;20470;-82
2022/01/02 07:55:51;;;;;;;8.75;6.45;;;9.30;1.00;;;;;;5057562;28;20372;-81
2022/01/02 07:58:17;;;;;;;7.90;6.40;;;9.30;1.00;;;;;;5061236;28;20303;-80
2022/01/02 08:00:44;;;;;;;6.13;5.50;;;9.40;1.00;;;;;;5062677;28;20622;-80
2022/01/02 08:03:12;;;;;;;6.70;6.00;;;9.40;1.00;;;;;;5056206;28;21317;-80
2022/01/02 08:05:39;;;;;;;11.07;6.50;;;9.40;1.00;;;;;;5066888;28;20462;-81
2022/01/02 08:08:06;;;;;;;7.67;5.47;;;9.50;1.00;;;;;;5065609;28;21370;-82
2022/01/02 08:10:32;;;;;;;8.60;5.53;;;9.50;1.00;;;;;;5055000;28;21378;-82
2022/01/02 08:13:02;;;;;;;6.10;4.87;;;9.60;1.00;;;;;;5055747;28;20448;-80
2022/01/02 08:15:29;;;;;;;5.97;5.17;;;9.60;1.00;;;;;;5057625;28;20459;-81
2022/01/02 08:17:56;;;;;;;6.60;5.10;;;9.70;1.00;;;;;;5054099;28;20916;-81
2022/01/02 08:20:24;;;;;;;8.37;5.67;;;9.70;1.00;;;;;;5043670;28;20457;-82
2022/01/02 08:22:50;;;;;;;7.15;6.45;;;9.70;1.00;;;;;;5053792;28;20523;-82
2022/01/02 08:25:17;;;;;;;6.50;4.77;;;9.70;1.00;;;;;;5056475;28;20655;-82
2022/01/02 08:27:44;;;;;;;6.53;5.17;;;9.80;1.00;;;;;;5052460;28;20550;-82
2022/01/02 08:30:11;;;;;;;5.87;5.27;;;9.90;1.00;;;;;;5056917;28;20431;-79
2022/01/02 08:35:13;;;;;;;7.23;5.47;;;10.00;1.00;;;;;;5087852;26;20229;-82
2022/01/02 08:37:41;;;;;;;6.67;5.43;;;10.10;1.00;;;;;;5067010;28;20460;-80
2022/01/02 08:40:09;;;;;;;6.57;5.60;;;10.10;1.00;;;;;;5077860;28;20519;-80
2022/01/02 08:42:36;;;;;;;6.70;4.80;;;10.10;1.00;;;;;;5079726;28;20473;-81
2022/01/02 08:45:03;;;;;;;9.17;4.67;;;10.10;1.00;;;;;;5084542;28;20289;-80
2022/01/02 08:47:31;;;;;;;6.03;4.37;;;10.20;1.00;;;;;;5085483;28;20547;-80
2022/01/02 08:49:57;;;;;;;6.30;3.90;;;10.30;1.00;;;;;;5086022;28;20440;-80
2022/01/02 08:52:25;;;;;;;6.73;4.20;;;10.30;1.00;;;;;;5066416;28;20510;-81
2022/01/02 08:54:53;;;;;;;6.03;4.13;;;10.30;1.00;;;;;;5058766;28;20511;-81
2022/01/02 08:57:19;;;;;;;5.43;4.43;;;10.30;1.00;;;;;;5055246;28;20529;-80
2022/01/02 08:59:46;;;;;;;5.70;5.03;;;10.30;1.00;;;;;;5050769;28;20578;-77
2022/01/02 09:02:13;;;;;;;6.07;4.27;;;10.40;1.00;;;;;;5058511;28;20967;-76
2022/01/02 09:04:39;;;;;;;4.70;4.07;;;10.40;1.00;;;;;;5059311;28;20489;-77
2022/01/02 09:07:06;;;;;;;6.37;4.90;;;10.50;1.00;;;;;;5055677;28;21048;-77
2022/01/02 09:09:33;;;;;;;5.90;3.73;;;10.50;1.00;;;;;;5053564;28;20456;-76
2022/01/02 09:12:01;;;;;;;8.73;5.10;;;10.50;1.00;;;;;;5058819;28;21771;-77
2022/01/02 09:14:28;;;;;;;5.63;4.30;;;10.60;1.00;;;;;;5071653;28;20419;-76
2022/01/02 09:16:55;;;;;;;7.37;4.70;;;10.60;1.00;;;;;;5082478;28;20514;-75
2022/01/02 09:19:22;;;;;;;5.30;3.87;;;10.60;1.00;;;;;;5076273;28;20567;-76
2022/01/02 09:21:49;;;;;;;6.23;4.30;;;10.60;1.00;;;;;;5058123;28;20437;-77
2022/01/02 09:24:15;;;;;;;5.83;4.80;;;10.70;1.00;;;;;;5061332;28;20509;-78
2022/01/02 09:26:42;;;;;;;15.10;9.80;;;10.70;1.00;;;;;;5057686;28;20552;-78
2022/01/02 09:29:10;;;;;;;5.57;4.30;;;10.80;1.00;;;;;;5054945;28;20451;-77
2022/01/02 09:31:37;;;;;;;6.67;4.23;;;10.80;1.00;;;;;;5059888;28;20542;-77
2022/01/02 09:34:04;;;;;;;7.10;4.20;;;10.80;1.00;;;;;;5059182;28;20467;-75
2022/01/02 09:36:30;;;;;;;7.03;4.63;;;10.80;1.00;;;;;;5057769;28;20542;-78
2022/01/02 09:38:57;;;;;;;5.50;4.87;;;10.80;1.00;;;;;;5056230;28;20459;-78
2022/01/02 09:41:24;;;;;;;7.33;4.27;;;10.90;1.00;;;;;;5060107;28;20448;-77
2022/01/02 09:43:51;;;;;;;5.50;4.70;;;10.80;1.00;;;;;;5060918;28;20840;-78
2022/01/02 09:46:22;;;;;;;5.30;4.63;;;10.90;1.00;;;;;;5063622;28;20448;-77
2022/01/02 09:48:49;;;;;;;8.33;5.23;;;10.90;1.00;;;;;;5055730;28;21345;-77
2022/01/02 09:51:17;;;;;;;4.67;3.77;;;10.90;1.00;;;;;;5074175;28;20471;-77
2022/01/02 09:53:45;;;;;;;5.97;4.80;;;10.90;1.00;;;;;;5075319;28;20477;-77
2022/01/02 09:56:11;;;;;;;6.07;4.37;;;10.90;1.00;;;;;;5079075;28;20427;-77
2022/01/02 09:58:40;;;;;;;6.13;4.10;;;10.90;1.00;;;;;;5066917;28;20455;-77
2022/01/02 10:01:07;;;;;;;5.30;4.33;;;10.80;1.00;;;;;;5068531;28;20440;-78
2022/01/02 10:03:45;;;;;;;4.77;4.20;;;10.90;1.00;;;;;;5075145;28;20486;-76
2022/01/02 10:06:12;;;;;;;5.77;4.77;;;10.90;1.00;;;;;;5064750;28;20455;-77
2022/01/02 10:08:38;;;;;;;7.90;4.50;;;10.90;1.00;;;;;;5067140;28;20431;-78
2022/01/02 10:11:08;;;;;;;6.00;4.77;;;11.00;1.00;;;;;;5059006;28;20921;-78
2022/01/02 10:13:40;;;;;;;7.43;6.20;;;11.00;1.00;;;;;;5061704;28;20544;-77
2022/01/02 10:16:19;;;;;;;8.50;5.03;;;11.10;1.00;;;;;;5061475;28;20485;-76
2022/01/02 10:18:48;;;;;;;6.50;4.70;;;11.10;1.00;;;;;;5063514;28;20977;-76
2022/01/02 10:21:28;;;;;;;6.60;4.33;;;11.00;1.00;;;;;;5064747;28;20405;-77
2022/01/02 10:24:13;;;;;;;6.83;4.30;;;11.00;1.00;;;;;;5070478;28;20490;-77
2022/01/02 10:26:40;;;;;;;6.90;4.80;;;10.90;1.00;;;;;;5070863;28;20404;-77
2022/01/02 10:29:12;;;;;;;9.43;5.57;;;10.90;1.00;;;;;;5072671;28;21463;-78
2022/01/02 10:31:39;;;;;;;9.33;4.60;;;10.90;1.00;;;;;;5053402;28;20529;-77
2022/01/02 10:34:08;;;;;;;6.73;4.40;;;10.90;1.00;;;;;;5050943;28;20466;-77
2022/01/02 10:36:36;;;;;;;6.70;5.03;;;10.90;1.00;;;;;;5056123;28;20609;-79
2022/01/02 10:39:07;;;;;;;6.40;5.40;;;10.90;1.00;;;;;;5054339;28;20444;-79
2022/01/02 10:41:36;;;;;;;7.50;5.30;;;10.90;1.00;;;;;;5055760;28;20523;-80
2022/01/02 10:44:26;;;;;;;6.50;5.10;;;11.00;1.00;;;;;;5057581;28;20450;-79
2022/01/02 10:47:07;;;;;;;9.63;5.00;;;11.00;1.00;;;;;;5063990;28;20470;-79
2022/01/02 10:49:49;;;;;;;5.47;4.50;;;11.00;1.00;;;;;;5057792;28;21700;-76
2022/01/02 10:52:20;;;;;;;7.50;4.60;;;11.00;1.00;;;;;;5081462;28;20412;-77
2022/01/02 10:54:47;;;;;;;8.90;5.17;;;11.00;1.00;;;;;;5058783;28;20430;-80
2022/01/02 10:57:14;;;;;;;8.27;5.30;;;11.00;1.00;;;;;;5057934;28;20565;-79
2022/01/02 10:59:45;;;;;;;7.93;4.77;;;11.00;1.00;;;;;;5062072;28;20484;-81
2022/01/02 11:02:13;;;;;;;6.03;4.70;;;11.00;1.00;;;;;;5065672;28;20562;-82
2022/01/02 11:04:50;;;;;;;9.00;4.90;;;11.00;1.00;;;;;;5062246;28;20706;-78
2022/01/02 11:07:22;;;;;;;6.00;5.20;;;10.90;1.00;;;;;;5059850;28;20871;-78
2022/01/02 11:09:50;;;;;;;8.73;5.27;;;10.90;1.00;;;;;;5055214;28;21344;-78
2022/01/02 11:12:17;;;;;;;8.73;5.20;;;10.90;1.00;;;;;;5061813;28;20416;-79
2022/01/02 11:14:44;;;;;;;9.10;5.60;;;10.90;1.00;;;;;;5058352;28;20456;-79
2022/01/02 11:17:13;;;;;;;9.10;5.00;;;10.90;1.00;;;;;;5061928;28;20470;-79
2022/01/02 11:19:39;;;;;;;7.73;5.10;;;10.90;1.00;;;;;;5058231;28;20646;-79
2022/01/02 11:22:14;;;;;;;10.20;5.10;;;10.80;1.00;;;;;;5063099;28;20562;-81
2022/01/02 11:24:49;;;;;;;8.37;5.33;;;10.80;1.00;;;;;;5058321;28;20465;-79
2022/01/02 11:27:22;;;;;;;5.70;4.50;;;10.80;1.00;;;;;;5055058;28;20460;-78
2022/01/02 11:29:49;;;;;;;8.80;5.20;;;10.80;1.00;;;;;;5051676;28;20464;-77
2022/01/02 11:32:22;;;;;;;8.70;5.67;;;10.80;1.00;;;;;;5066321;28;20459;-78
2022/01/02 11:34:49;;;;;;;6.83;4.80;;;10.80;1.00;;;;;;5061762;28;21659;-80
2022/01/02 11:37:25;;;;;;;8.10;5.03;;;10.80;1.00;;;;;;5069350;28;20409;-78
2022/01/02 11:39:58;;;;;;;7.90;5.40;;;10.80;1.00;;;;;;5071804;28;20493;-80
2022/01/02 11:42:45;;;;;;;6.00;4.80;;;10.80;1.00;;;;;;5087261;28;20408;-79
2022/01/02 11:45:44;;;;;;;8.07;4.97;;;10.80;1.00;;;;;;5077003;28;20440;-80
2022/01/02 11:48:29;;;;;;;6.43;4.70;;;10.80;1.00;;;;;;5066342;28;20900;-79
2022/01/02 11:50:55;;;;;;;7.40;5.13;;;10.80;1.00;;;;;;5064685;28;20516;-81
2022/01/02 11:53:25;;;;;;;9.23;5.60;;;10.70;1.00;;;;;;5057384;28;20454;-78
2022/01/02 11:55:54;;;;;;;7.70;5.47;;;10.70;1.00;;;;;;5074260;28;20631;-79
2022/01/02 11:58:51;;;;;;;8.50;6.20;;;10.60;1.00;;;;;;5059575;28;20604;-79
2022/01/02 12:01:45;;;;;;;7.57;5.30;;;10.70;1.00;;;;;;5059357;28;21847;-78
2022/01/02 12:04:12;;;;;;;6.17;5.03;;;10.60;1.00;;;;;;5065697;28;20428;-76
2022/01/02 12:06:42;;;;;;;6.93;4.27;;;10.60;1.00;;;;;;5078342;28;20480;-78
2022/01/02 12:09:36;;;;;;;7.20;5.00;;;10.70;1.00;;;;;;5071158;28;20427;-79
2022/01/02 12:12:06;;;;;;;7.30;5.50;;;10.70;1.00;;;;;;5081303;28;20427;-80
2022/01/02 12:14:51;;;;;;;8.77;5.00;;;10.60;1.00;;;;;;5081082;28;20416;-78
2022/01/02 12:17:23;;;;;;;8.33;5.30;;;10.60;1.00;;;;;;5078219;28;20412;-80
2022/01/02 12:20:07;;;;;;;6.90;5.40;;;10.60;1.00;;;;;;5080671;28;20443;-81
2022/01/02 12:22:42;;;;;;;6.77;5.90;;;10.60;1.00;;;;;;5075893;28;20423;-79
2022/01/02 12:25:15;;;;;;;8.23;5.80;;;10.60;1.00;;;;;;5094368;28;20480;-79
2022/01/02 12:27:56;;;;;;;8.40;5.63;;;10.60;1.00;;;;;;5090466;28;20408;-81
2022/01/02 12:30:24;;;;;;;8.00;5.93;;;10.60;1.00;;;;;;5078775;28;20423;-81
2022/01/02 12:32:51;;;;;;;7.53;4.97;;;10.60;1.00;;;;;;5083779;28;20451;-80
2022/01/02 12:35:19;;;;;;;8.00;5.53;;;10.60;1.00;;;;;;5062856;28;20455;-82
2022/01/02 12:37:46;;;;;;;9.10;4.90;;;10.60;1.00;;;;;;5064080;28;20463;-81
2022/01/02 12:40:18;;;;;;;7.30;5.00;;;10.60;1.00;;;;;;5058446;28;20484;-81
2022/01/02 12:42:46;;;;;;;7.77;5.03;;;10.60;1.00;;;;;;5061086;28;20563;-80
2022/01/02 12:45:18;;;;;;;8.90;5.53;;;10.60;1.00;;;;;;5062836;28;20440;-79
2022/01/02 12:47:52;;;;;;;9.57;4.80;;;10.60;1.00;;;;;;5059877;28;20545;-80
2022/01/02 12:50:25;;;;;;;9.17;5.17;;;10.60;1.00;;;;;;5061033;28;21151;-79
2022/01/02 12:52:52;;;;;;;7.70;4.80;;;10.60;1.00;;;;;;5066073;28;21194;-80
2022/01/02 12:55:22;;;;;;;6.97;5.63;;;10.60;1.00;;;;;;5064378;28;21694;-86
2022/01/02 12:57:49;;;;;;;8.30;5.40;;;10.50;1.00;;;;;;5064406;28;20495;-85
2022/01/02 13:00:16;;;;;;;8.67;5.50;;;10.50;1.00;;;;;;5065574;28;22558;-83
2022/01/02 13:02:45;;;;;;;6.50;4.90;;;10.50;1.00;;;;;;5069021;28;21618;-83
2022/01/02 13:05:16;;;;;;;5.90;4.90;;;10.50;1.00;;;;;;5067009;28;20468;-83
2022/01/02 13:07:44;;;;;;;7.47;5.23;;;10.40;1.00;;;;;;5070450;28;21134;-81
2022/01/02 13:10:15;;;;;;;6.23;5.60;;;10.40;1.00;;;;;;5068962;28;21455;-81
2022/01/02 13:12:47;;;;;;;8.50;5.50;;;10.40;1.00;;;;;;5074130;28;20412;-83
2022/01/02 13:15:16;;;;;;;9.57;6.10;;;10.30;1.00;;;;;;5060253;28;20482;-82